Time;durP1;ratioP1;P1;durP2;ratioP2;P2;SDS_P1;SDS_P2;PMS_P1;PMS_P2;Temp;Humidity;BMP_temperature;BMP_pressure;BME280_temperature;BME280_humidity;BME280_pressure;Samples;Min_cycle;Max_cycle;Signal;HPM_P1;HPM_P2
2023/07/27 00:02:23;;;;;;;15.50;7.93;;;10.80;99.90;;;;;;5029834;28;20037;-23
2023/07/27 00:04:49;;;;;;;14.27;8.30;;;10.90;99.90;;;;;;5033256;28;20045;-23
2023/07/27 00:07:15;;;;;;;17.17;8.30;;;10.80;99.90;;;;;;5048576;28;20049;-23
2023/07/27 00:09:40;;;;;;;12.93;7.20;;;10.90;99.90;;;;;;5051363;28;20120;-23
2023/07/27 00:12:06;;;;;;;16.13;7.43;;;11.00;99.90;;;;;;5029031;28;20053;-23
2023/07/27 00:14:32;;;;;;;13.57;7.78;;;10.90;99.90;;;;;;5048395;28;20043;-23
2023/07/27 00:16:58;;;;;;;13.82;7.53;;;11.00;99.90;;;;;;5033395;28;20044;-23
2023/07/27 00:19:23;;;;;;;12.73;7.43;;;11.00;99.90;;;;;;5049794;28;20125;-22
2023/07/27 00:21:49;;;;;;;13.07;7.40;;;11.00;99.90;;;;;;5049606;28;20132;-23
2023/07/27 00:24:17;;;;;;;15.02;7.20;;;11.10;99.90;;;;;;5034578;28;20042;-23
2023/07/27 00:26:43;;;;;;;9.70;6.90;;;11.10;99.90;;;;;;5031711;28;20484;-23
2023/07/27 00:29:09;;;;;;;14.68;7.70;;;11.10;99.90;;;;;;5034179;28;20061;-23
2023/07/27 00:31:34;;;;;;;11.93;6.38;;;11.10;99.90;;;;;;5048699;28;20045;-23
2023/07/27 00:34:00;;;;;;;14.30;6.97;;;11.20;99.90;;;;;;5036556;28;20045;-23
2023/07/27 00:36:27;;;;;;;12.05;6.88;;;11.20;99.90;;;;;;5011162;28;20060;-23
2023/07/27 00:38:52;;;;;;;14.15;7.40;;;11.20;99.90;;;;;;5036151;28;20116;-23
2023/07/27 00:41:22;;;;;;;10.63;6.55;;;11.20;99.90;;;;;;5036144;28;20106;-23
2023/07/27 00:43:50;;;;;;;10.00;6.60;;;11.20;99.90;;;;;;5036811;28;20092;-23
2023/07/27 00:46:16;;;;;;;12.65;6.80;;;11.20;99.90;;;;;;5035041;28;20519;-23
2023/07/27 00:48:42;;;;;;;13.27;6.82;;;11.20;99.90;;;;;;5049272;28;20048;-23
2023/07/27 00:51:08;;;;;;;11.20;6.63;;;11.20;99.90;;;;;;5052871;28;20053;-23
2023/07/27 00:53:34;;;;;;;10.25;6.65;;;11.20;99.90;;;;;;5045371;28;20123;-22
2023/07/27 00:56:01;;;;;;;11.93;6.85;;;11.20;99.90;;;;;;5044996;28;20446;-23
2023/07/27 00:58:27;;;;;;;10.00;6.07;;;11.20;99.90;;;;;;5035786;28;20096;-23
2023/07/27 01:00:53;;;;;;;13.65;6.88;;;11.20;99.90;;;;;;5034833;28;20124;-23
2023/07/27 01:03:19;;;;;;;12.75;6.90;;;11.20;99.90;;;;;;5053126;28;20137;-23
2023/07/27 01:05:45;;;;;;;9.77;7.03;;;11.20;99.90;;;;;;5025231;28;20052;-22
2023/07/27 01:08:11;;;;;;;13.15;7.25;;;11.20;99.90;;;;;;5068234;28;20064;-23
2023/07/27 01:11:04;;;;;;;12.00;7.05;;;11.20;99.90;;;;;;5034790;28;20534;-23
2023/07/27 01:13:48;;;;;;;12.27;6.75;;;11.20;99.90;;;;;;5066341;28;20077;-23
2023/07/27 01:16:22;;;;;;;12.57;5.90;;;11.20;99.90;;;;;;5036595;28;20399;-23
2023/07/27 01:19:18;;;;;;;13.95;7.30;;;11.20;99.90;;;;;;5039272;28;20093;-23
2023/07/27 01:21:48;;;;;;;9.93;5.93;;;11.20;99.90;;;;;;5054833;28;20049;-23
2023/07/27 01:24:33;;;;;;;11.60;6.78;;;11.30;99.90;;;;;;5053555;28;20041;-23
2023/07/27 01:27:36;;;;;;;9.07;6.25;;;11.20;99.90;;;;;;5040975;28;20403;-23
2023/07/27 01:30:16;;;;;;;10.00;6.20;;;11.20;99.90;;;;;;5021957;28;20407;-23
2023/07/27 01:32:45;;;;;;;11.25;6.25;;;11.20;99.90;;;;;;5046039;28;20072;-23
2023/07/27 01:35:14;;;;;;;9.48;5.97;;;11.20;99.90;;;;;;5035149;28;20056;-23
2023/07/27 01:37:44;;;;;;;15.73;6.57;;;11.20;99.90;;;;;;5054435;28;20064;-23
2023/07/27 01:40:13;;;;;;;9.48;6.30;;;11.20;99.90;;;;;;5054454;28;20503;-23
2023/07/27 01:42:40;;;;;;;10.30;6.55;;;11.20;99.90;;;;;;5048783;28;20060;-23
2023/07/27 01:45:08;;;;;;;13.82;6.88;;;11.20;99.90;;;;;;5037648;28;20053;-23
2023/07/27 01:47:35;;;;;;;10.38;6.95;;;11.10;99.90;;;;;;5050944;28;20055;-23
2023/07/27 01:50:03;;;;;;;10.45;6.28;;;11.20;99.90;;;;;;5034834;28;20143;-23
2023/07/27 01:52:30;;;;;;;9.70;5.97;;;11.20;99.90;;;;;;5023295;28;20156;-23
2023/07/27 01:54:58;;;;;;;12.95;7.07;;;11.20;99.90;;;;;;5034951;28;20041;-23
2023/07/27 01:57:24;;;;;;;9.32;6.88;;;11.20;99.90;;;;;;5050650;28;20044;-23
2023/07/27 01:59:53;;;;;;;12.30;6.70;;;11.30;99.90;;;;;;5053151;28;20398;-23
2023/07/27 02:02:19;;;;;;;10.25;6.60;;;11.30;99.90;;;;;;5038917;28;20403;-23
2023/07/27 02:04:44;;;;;;;13.63;7.07;;;11.30;99.90;;;;;;5034976;28;20041;-23
2023/07/27 02:07:10;;;;;;;8.98;5.72;;;11.40;99.90;;;;;;5034889;28;20103;-23
2023/07/27 02:09:36;;;;;;;9.80;6.20;;;11.40;99.90;;;;;;5053758;28;20051;-23
2023/07/27 02:12:15;;;;;;;9.02;6.35;;;11.40;99.90;;;;;;5055034;28;20087;-23
2023/07/27 02:14:55;;;;;;;9.73;6.13;;;11.50;99.90;;;;;;5046269;28;20487;-23
2023/07/27 02:17:29;;;;;;;9.68;5.80;;;11.50;99.90;;;;;;5036820;28;20056;-23
2023/07/27 02:19:57;;;;;;;8.43;5.32;;;11.60;99.90;;;;;;5028901;28;20052;-23
2023/07/27 02:22:25;;;;;;;10.75;5.78;;;11.60;99.90;;;;;;5053501;28;20041;-23
2023/07/27 02:24:51;;;;;;;7.88;5.35;;;11.70;99.90;;;;;;5045743;28;20049;-23
2023/07/27 02:27:17;;;;;;;10.45;5.65;;;11.70;99.90;;;;;;5032244;28;20514;-23
2023/07/27 02:29:42;;;;;;;8.40;6.20;;;11.70;99.90;;;;;;5048659;28;20045;-23
2023/07/27 02:32:08;;;;;;;9.48;5.63;;;11.70;99.90;;;;;;5044246;28;20041;-23
2023/07/27 02:34:34;;;;;;;8.10;5.10;;;11.80;99.90;;;;;;5053112;28;20057;-23
2023/07/27 02:37:02;;;;;;;9.25;5.50;;;11.80;99.90;;;;;;5037661;28;20175;-23
2023/07/27 02:39:28;;;;;;;10.60;5.85;;;11.80;99.90;;;;;;5035068;28;20071;-23
2023/07/27 02:41:54;;;;;;;10.63;5.90;;;11.80;99.90;;;;;;5034017;28;20046;-23
2023/07/27 02:44:19;;;;;;;11.43;5.68;;;11.80;99.90;;;;;;5033663;28;20055;-23
2023/07/27 02:46:45;;;;;;;9.63;5.63;;;11.80;99.90;;;;;;5041125;28;20053;-23
2023/07/27 02:49:11;;;;;;;10.73;6.10;;;11.80;99.90;;;;;;5036428;28;20107;-23
2023/07/27 02:51:36;;;;;;;8.32;5.65;;;11.80;99.90;;;;;;5032728;28;20053;-23
2023/07/27 02:54:02;;;;;;;8.00;5.10;;;11.90;99.90;;;;;;5032513;28;20049;-23
2023/07/27 02:56:28;;;;;;;10.23;5.50;;;11.90;99.90;;;;;;5034523;28;20072;-23
2023/07/27 02:58:56;;;;;;;8.50;5.47;;;11.90;99.90;;;;;;5032864;28;20483;-23
2023/07/27 03:01:22;;;;;;;12.98;6.32;;;11.90;99.90;;;;;;5033613;28;20067;-23
2023/07/27 03:03:50;;;;;;;10.55;5.85;;;11.90;99.90;;;;;;5034040;28;20446;-23
2023/07/27 03:06:15;;;;;;;9.70;5.05;;;12.00;99.90;;;;;;5049536;28;20048;-22
2023/07/27 03:08:41;;;;;;;10.73;5.25;;;12.00;99.90;;;;;;5044121;28;20048;-23
2023/07/27 03:11:07;;;;;;;10.50;5.57;;;12.00;99.90;;;;;;5052363;28;20622;-23
2023/07/27 03:13:33;;;;;;;12.30;5.47;;;12.00;99.90;;;;;;5019524;28;20044;-23
2023/07/27 03:16:02;;;;;;;9.50;5.57;;;12.10;99.90;;;;;;5032036;28;20099;-23
2023/07/27 03:18:28;;;;;;;8.20;4.63;;;12.10;99.90;;;;;;5035990;28;20057;-23
2023/07/27 03:20:54;;;;;;;12.30;5.70;;;12.20;99.90;;;;;;5049849;28;20495;-23
2023/07/27 03:23:19;;;;;;;8.00;5.85;;;12.30;99.90;;;;;;5044415;28;20041;-22
2023/07/27 03:25:45;;;;;;;11.07;6.35;;;12.30;99.90;;;;;;5038576;28;20539;-23
2023/07/27 03:28:11;;;;;;;7.72;5.78;;;12.40;99.90;;;;;;5033631;28;20049;-23
2023/07/27 03:30:40;;;;;;;8.90;5.80;;;12.40;99.90;;;;;;5060155;28;20092;-23
2023/07/27 03:33:06;;;;;;;7.93;5.40;;;12.40;99.90;;;;;;5032553;28;20407;-23
2023/07/27 03:35:33;;;;;;;8.95;5.60;;;12.50;99.90;;;;;;5033063;28;20046;-23
2023/07/27 03:37:59;;;;;;;8.45;5.18;;;12.50;99.90;;;;;;5048770;28;20104;-23
2023/07/27 03:40:24;;;;;;;11.02;5.40;;;12.60;99.90;;;;;;5052228;28;20450;-23
2023/07/27 03:42:50;;;;;;;8.93;5.85;;;12.60;99.90;;;;;;5033447;28;20089;-23
2023/07/27 03:45:16;;;;;;;10.52;5.28;;;12.60;99.90;;;;;;5036379;28;20048;-23
2023/07/27 03:47:43;;;;;;;9.52;5.22;;;12.60;99.90;;;;;;5032269;28;20042;-23
2023/07/27 03:50:09;;;;;;;10.57;5.88;;;12.60;99.90;;;;;;5036542;28;20060;-23
2023/07/27 03:52:35;;;;;;;8.18;5.45;;;12.60;99.90;;;;;;5046530;28;20045;-23
2023/07/27 03:55:01;;;;;;;9.82;5.35;;;12.60;99.90;;;;;;5044837;28;20037;-23
2023/07/27 03:57:27;;;;;;;9.60;5.53;;;12.60;99.90;;;;;;5052125;28;20048;-24
2023/07/27 03:59:59;;;;;;;9.95;5.35;;;12.60;99.90;;;;;;5048376;28;20052;-23
2023/07/27 04:02:26;;;;;;;6.88;5.10;;;12.60;99.90;;;;;;5032882;28;20140;-23
2023/07/27 04:04:52;;;;;;;10.40;5.93;;;12.60;99.90;;;;;;5039033;28;20511;-23
2023/07/27 04:07:18;;;;;;;8.90;6.05;;;12.60;99.90;;;;;;5037966;28;20049;-23
2023/07/27 04:09:44;;;;;;;12.90;6.60;;;12.60;99.90;;;;;;5057512;28;20056;-23
2023/07/27 04:12:10;;;;;;;10.75;6.38;;;12.70;99.90;;;;;;5040364;28;20395;-22
2023/07/27 04:14:38;;;;;;;11.40;6.35;;;12.70;99.90;;;;;;5053351;28;20106;-23
2023/07/27 04:17:04;;;;;;;11.57;5.93;;;12.70;99.90;;;;;;5040213;28;20072;-23
2023/07/27 04:19:30;;;;;;;10.02;6.25;;;12.70;99.90;;;;;;5037577;28;20064;-23
2023/07/27 04:21:56;;;;;;;12.30;7.25;;;12.70;99.90;;;;;;5042977;28;20041;-22
2023/07/27 04:24:22;;;;;;;11.35;6.43;;;12.70;99.90;;;;;;5040277;28;20045;-23
2023/07/27 04:26:47;;;;;;;11.63;6.65;;;12.70;99.90;;;;;;5051644;28;20483;-23
2023/07/27 04:29:13;;;;;;;10.95;7.25;;;12.70;99.90;;;;;;5049794;28;20067;-23
2023/07/27 04:31:38;;;;;;;11.93;7.72;;;12.70;99.90;;;;;;5040126;28;20053;-23
2023/07/27 04:34:05;;;;;;;12.73;6.70;;;12.70;99.90;;;;;;5039268;28;20037;-23
2023/07/27 04:36:31;;;;;;;13.75;7.65;;;12.70;99.90;;;;;;5038817;28;20051;-23
2023/07/27 04:38:56;;;;;;;13.85;8.35;;;12.70;99.90;;;;;;5056486;28;20052;-23
2023/07/27 04:41:22;;;;;;;12.05;7.20;;;12.70;99.90;;;;;;5057061;28;20041;-23
2023/07/27 04:43:48;;;;;;;14.80;7.40;;;12.70;99.90;;;;;;5056142;28;20403;-23
2023/07/27 04:46:14;;;;;;;13.07;8.30;;;12.70;99.90;;;;;;5051321;28;20045;-22
2023/07/27 04:48:40;;;;;;;12.38;7.57;;;12.80;99.90;;;;;;5035743;28;20049;-23
2023/07/27 04:51:07;;;;;;;13.00;8.35;;;12.70;99.90;;;;;;5036415;28;20081;-23
2023/07/27 04:53:33;;;;;;;13.00;8.90;;;12.70;99.90;;;;;;5036213;28;20471;-22
2023/07/27 04:55:59;;;;;;;16.35;9.35;;;12.70;99.90;;;;;;5035526;28;20048;-22
2023/07/27 04:58:24;;;;;;;14.65;8.82;;;12.80;99.90;;;;;;5036276;28;20050;-22
2023/07/27 05:00:54;;;;;;;14.55;10.00;;;12.80;99.90;;;;;;5037015;28;20049;-22
2023/07/27 05:03:20;;;;;;;18.67;9.80;;;12.80;99.90;;;;;;5053687;28;20041;-22
2023/07/27 05:05:46;;;;;;;17.08;10.50;;;12.80;99.90;;;;;;5041959;28;20049;-22
2023/07/27 05:08:14;;;;;;;19.05;10.95;;;12.80;99.90;;;;;;5035328;28;20128;-22
2023/07/27 05:10:44;;;;;;;19.65;11.50;;;12.80;99.90;;;;;;5039052;28;20080;-22
2023/07/27 05:13:13;;;;;;;18.05;11.52;;;12.80;99.90;;;;;;5036598;28;20055;-22
2023/07/27 05:15:43;;;;;;;21.23;12.00;;;12.80;99.90;;;;;;5041131;28;20049;-22
2023/07/27 05:18:14;;;;;;;20.10;12.02;;;12.90;99.90;;;;;;5051755;28;20045;-22
2023/07/27 05:20:40;;;;;;;19.25;11.13;;;12.90;99.90;;;;;;5044872;28;20042;-22
2023/07/27 05:23:05;;;;;;;23.75;12.00;;;13.00;99.90;;;;;;5026695;28;20057;-22
2023/07/27 05:25:34;;;;;;;18.73;12.95;;;13.10;99.90;;;;;;5049407;28;20049;-22
2023/07/27 05:28:02;;;;;;;22.35;12.52;;;13.10;99.90;;;;;;5037702;28;20049;-22
2023/07/27 05:30:28;;;;;;;24.08;13.57;;;13.20;99.90;;;;;;5037679;28;20502;-22
2023/07/27 05:32:53;;;;;;;21.70;12.55;;;13.30;99.90;;;;;;5060658;28;20057;-22
2023/07/27 05:35:19;;;;;;;23.13;12.82;;;13.30;99.90;;;;;;5038040;28;20034;-22
2023/07/27 05:37:50;;;;;;;19.02;12.07;;;13.30;99.90;;;;;;5035478;28;20507;-23
2023/07/27 05:40:16;;;;;;;20.00;10.65;;;13.40;99.90;;;;;;5037611;28;20407;-22
2023/07/27 05:42:43;;;;;;;21.13;11.50;;;13.40;99.90;;;;;;5041777;28;20053;-22
2023/07/27 05:45:09;;;;;;;16.42;10.38;;;13.50;99.90;;;;;;5055252;28;20044;-23
2023/07/27 05:47:35;;;;;;;18.95;10.65;;;13.50;99.90;;;;;;5044772;28;20057;-22
2023/07/27 05:50:02;;;;;;;15.45;11.15;;;13.40;99.90;;;;;;5034362;28;20124;-22
2023/07/27 05:52:27;;;;;;;17.52;10.68;;;13.40;99.90;;;;;;5034097;28;20049;-22
2023/07/27 05:54:53;;;;;;;15.95;10.05;;;13.40;99.90;;;;;;5038218;28;20052;-22
2023/07/27 05:57:19;;;;;;;17.05;10.70;;;13.40;99.90;;;;;;5034194;28;20077;-22
2023/07/27 05:59:45;;;;;;;18.85;10.82;;;13.40;99.90;;;;;;5032910;28;20053;-22
2023/07/27 06:02:11;;;;;;;15.10;9.63;;;13.40;99.90;;;;;;5035020;28;20049;-22
2023/07/27 06:04:36;;;;;;;14.65;9.65;;;13.40;99.90;;;;;;5038278;28;20037;-23
2023/07/27 06:07:05;;;;;;;17.58;9.02;;;13.30;99.90;;;;;;5016970;28;20053;-22
2023/07/27 06:09:31;;;;;;;13.00;8.30;;;13.30;99.90;;;;;;5020632;28;20044;-22
2023/07/27 06:11:57;;;;;;;17.02;10.38;;;13.40;99.90;;;;;;5034524;28;20491;-22
2023/07/27 06:14:23;;;;;;;16.05;9.27;;;13.40;99.90;;;;;;5037368;28;20099;-22
2023/07/27 06:16:49;;;;;;;15.00;9.60;;;13.40;99.90;;;;;;5052323;28;20049;-22
2023/07/27 06:19:15;;;;;;;14.55;9.00;;;13.50;99.90;;;;;;5048485;28;20041;-23
2023/07/27 06:21:40;;;;;;;13.52;8.70;;;13.50;99.90;;;;;;5040104;28;20049;-22
2023/07/27 06:24:08;;;;;;;14.20;9.02;;;13.60;99.90;;;;;;5035163;28;20041;-22
2023/07/27 06:26:33;;;;;;;16.23;9.25;;;13.70;99.90;;;;;;5032936;28;20075;-23
2023/07/27 06:28:59;;;;;;;16.10;9.43;;;13.90;99.90;;;;;;5038291;28;20045;-22
2023/07/27 06:31:25;;;;;;;12.25;8.68;;;14.20;99.90;;;;;;5053133;28;20179;-23
2023/07/27 06:33:51;;;;;;;12.40;8.52;;;14.30;99.90;;;;;;5047100;28;20034;-23
2023/07/27 06:36:17;;;;;;;11.18;8.60;;;14.50;99.90;;;;;;5034837;28;20088;-23
2023/07/27 06:38:43;;;;;;;11.10;7.97;;;14.60;99.90;;;;;;5048679;28;20076;-22
2023/07/27 06:41:09;;;;;;;10.98;7.68;;;14.90;99.90;;;;;;5062480;28;20076;-22
2023/07/27 06:43:35;;;;;;;9.63;6.40;;;15.10;99.90;;;;;;5059939;28;20041;-23
2023/07/27 06:46:01;;;;;;;11.07;6.95;;;15.20;99.90;;;;;;5052162;28;20076;-25
2023/07/27 06:48:26;;;;;;;9.60;7.20;;;15.30;99.90;;;;;;5053827;28;20076;-25
2023/07/27 06:50:52;;;;;;;8.00;6.38;;;15.30;99.90;;;;;;5053366;28;20045;-25
2023/07/27 06:53:18;;;;;;;11.82;6.55;;;15.40;99.90;;;;;;5053968;28;20095;-25
2023/07/27 06:55:44;;;;;;;8.75;6.20;;;15.30;99.90;;;;;;5045288;28;20053;-26
2023/07/27 06:58:10;;;;;;;9.15;6.10;;;15.50;99.90;;;;;;5034044;28;20053;-25
2023/07/27 07:00:36;;;;;;;9.25;5.95;;;15.50;99.90;;;;;;5016463;28;20107;-26
2023/07/27 07:03:02;;;;;;;7.53;6.13;;;15.50;99.90;;;;;;5034384;28;20049;-25
2023/07/27 07:05:28;;;;;;;11.82;6.57;;;15.40;99.90;;;;;;5034128;28;20124;-25
2023/07/27 07:07:54;;;;;;;8.00;5.60;;;15.40;99.90;;;;;;5033933;28;20056;-25
2023/07/27 07:10:20;;;;;;;7.22;5.82;;;15.30;99.90;;;;;;5034426;28;20049;-26
2023/07/27 07:12:45;;;;;;;10.32;6.30;;;15.40;99.90;;;;;;5033784;28;20041;-25
2023/07/27 07:15:11;;;;;;;8.98;5.93;;;15.40;99.90;;;;;;5033718;28;20095;-25
2023/07/27 07:17:38;;;;;;;7.65;4.82;;;15.40;99.90;;;;;;5032797;28;20467;-25
2023/07/27 07:20:08;;;;;;;8.65;5.97;;;15.40;99.90;;;;;;5028542;28;20044;-26
2023/07/27 07:22:35;;;;;;;6.75;5.22;;;15.40;99.90;;;;;;5053388;28;20509;-26
2023/07/27 07:25:01;;;;;;;6.85;5.20;;;15.40;99.90;;;;;;5053206;28;20044;-25
2023/07/27 07:27:26;;;;;;;8.23;5.32;;;15.40;99.90;;;;;;5053763;28;20056;-26
2023/07/27 07:29:52;;;;;;;8.30;4.45;;;15.40;99.90;;;;;;5051923;28;20530;-23
2023/07/27 07:32:18;;;;;;;7.47;4.78;;;15.40;99.90;;;;;;5019257;28;20050;-23
2023/07/27 07:34:43;;;;;;;8.50;4.65;;;15.40;99.90;;;;;;5033472;28;20498;-24
2023/07/27 07:37:10;;;;;;;4.70;3.90;;;15.50;99.90;;;;;;5034994;28;20076;-24
2023/07/27 07:39:35;;;;;;;8.10;4.15;;;15.50;99.90;;;;;;5046359;28;20041;-24
2023/07/27 07:42:01;;;;;;;4.55;4.03;;;15.60;99.90;;;;;;5057580;28;20052;-24
2023/07/27 07:44:27;;;;;;;5.43;4.15;;;15.50;99.90;;;;;;5057188;28;20053;-24
2023/07/27 07:46:53;;;;;;;5.82;4.32;;;15.50;99.90;;;;;;5039973;28;20368;-24
2023/07/27 07:49:19;;;;;;;6.25;4.72;;;15.50;99.90;;;;;;5058319;28;20471;-24
2023/07/27 07:51:44;;;;;;;6.05;4.18;;;15.50;99.90;;;;;;5039532;28;20402;-24
2023/07/27 07:54:10;;;;;;;5.43;4.60;;;15.50;99.90;;;;;;5050988;28;20037;-23
2023/07/27 07:56:36;;;;;;;6.30;4.53;;;15.50;99.90;;;;;;5056623;28;20225;-24
2023/07/27 07:59:02;;;;;;;7.28;4.82;;;15.50;99.90;;;;;;5039683;28;20049;-23
2023/07/27 08:01:28;;;;;;;5.13;3.70;;;15.50;99.90;;;;;;5057279;28;20044;-24
2023/07/27 08:03:54;;;;;;;5.30;3.65;;;15.60;99.90;;;;;;5052864;28;20076;-23
2023/07/27 08:06:20;;;;;;;5.75;3.90;;;15.70;99.90;;;;;;5016837;28;20080;-24
2023/07/27 08:08:46;;;;;;;5.13;4.10;;;15.80;99.90;;;;;;5035936;28;20049;-24
2023/07/27 08:11:11;;;;;;;5.07;4.05;;;15.90;99.90;;;;;;5037174;28;20054;-23
2023/07/27 08:13:37;;;;;;;4.20;2.92;;;16.10;99.90;;;;;;5037005;28;20053;-24
2023/07/27 08:16:03;;;;;;;4.38;3.60;;;16.30;99.90;;;;;;5050408;28;20045;-24
2023/07/27 08:18:32;;;;;;;5.10;3.42;;;16.40;99.90;;;;;;5056766;28;20048;-24
2023/07/27 08:21:02;;;;;;;4.80;3.28;;;16.50;99.90;;;;;;5055907;28;20487;-24
2023/07/27 08:23:28;;;;;;;4.35;2.80;;;16.40;99.90;;;;;;5057040;28;20071;-24
2023/07/27 08:25:55;;;;;;;5.43;2.60;;;16.40;99.90;;;;;;5028168;28;20041;-24
2023/07/27 08:28:21;;;;;;;3.42;2.72;;;16.40;99.90;;;;;;5036025;28;20112;-24
2023/07/27 08:30:48;;;;;;;2.80;1.92;;;16.40;99.90;;;;;;5035826;28;20049;-24
2023/07/27 08:33:14;;;;;;;2.50;1.90;;;16.50;99.90;;;;;;5040471;28;20475;-23
2023/07/27 08:35:40;;;;;;;2.22;1.60;;;16.50;99.90;;;;;;5042359;28;20049;-24
2023/07/27 08:38:06;;;;;;;2.30;1.63;;;16.40;99.90;;;;;;5037047;28;20129;-23
2023/07/27 08:40:32;;;;;;;2.63;1.63;;;16.40;99.90;;;;;;5056553;28;20056;-23
2023/07/27 08:42:58;;;;;;;2.45;1.65;;;16.50;99.90;;;;;;5055732;28;20057;-24
2023/07/27 08:45:24;;;;;;;3.05;1.70;;;16.60;99.90;;;;;;5050667;28;20483;-24
2023/07/27 08:47:53;;;;;;;1.77;1.48;;;16.60;99.90;;;;;;5036307;28;20041;-24
2023/07/27 08:50:22;;;;;;;2.75;1.52;;;16.70;99.90;;;;;;5034968;28;20041;-24
2023/07/27 08:52:47;;;;;;;2.63;1.40;;;16.80;99.90;;;;;;5036196;28;20037;-24
2023/07/27 08:55:13;;;;;;;2.13;1.35;;;16.90;99.90;;;;;;5041163;28;20048;-24
2023/07/27 08:57:39;;;;;;;2.55;1.60;;;17.00;99.90;;;;;;5056182;28;20081;-24
2023/07/27 09:00:06;;;;;;;1.88;1.40;;;17.10;99.90;;;;;;5056207;28;20052;-24
2023/07/27 09:02:31;;;;;;;1.67;1.30;;;17.30;99.90;;;;;;5055804;28;20048;-24
2023/07/27 09:04:57;;;;;;;1.77;1.40;;;17.50;99.90;;;;;;5053766;28;20060;-24
2023/07/27 09:07:23;;;;;;;2.15;1.65;;;17.60;99.90;;;;;;5052181;28;20048;-24
2023/07/27 09:09:53;;;;;;;2.40;1.60;;;17.70;99.90;;;;;;5022815;28;20049;-24
2023/07/27 09:12:21;;;;;;;2.38;1.77;;;17.70;99.90;;;;;;5055992;28;20044;-24
2023/07/27 09:14:47;;;;;;;2.40;1.42;;;17.80;99.90;;;;;;5022018;28;20094;-24
2023/07/27 09:17:13;;;;;;;2.20;1.63;;;17.90;99.90;;;;;;5040888;28;20049;-24
2023/07/27 09:19:42;;;;;;;2.20;1.55;;;17.90;99.90;;;;;;5035838;28;20056;-24
2023/07/27 09:22:08;;;;;;;2.05;1.70;;;17.90;99.90;;;;;;5044206;28;20387;-23
2023/07/27 09:24:35;;;;;;;2.88;2.00;;;17.60;99.90;;;;;;5060314;28;20041;-24
2023/07/27 09:27:02;;;;;;;1.88;1.30;;;17.60;99.90;;;;;;5053435;28;20142;-24
2023/07/27 09:29:29;;;;;;;1.63;1.20;;;17.50;99.90;;;;;;5046234;28;20050;-24
2023/07/27 09:32:00;;;;;;;1.73;1.30;;;17.50;99.90;;;;;;5034707;28;20488;-24
2023/07/27 09:34:28;;;;;;;1.67;1.00;;;17.50;99.90;;;;;;5034482;28;20128;-24
2023/07/27 09:36:56;;;;;;;1.73;1.45;;;17.40;99.90;;;;;;5036072;28;20050;-24
2023/07/27 09:39:25;;;;;;;1.92;0.90;;;17.50;99.90;;;;;;5037058;28;20049;-24
2023/07/27 09:41:52;;;;;;;1.92;1.25;;;17.50;99.90;;;;;;5050206;28;20045;-24
2023/07/27 09:44:19;;;;;;;1.55;0.93;;;17.50;99.90;;;;;;5053849;28;20057;-24
2023/07/27 09:46:45;;;;;;;2.00;1.10;;;17.50;99.90;;;;;;5038085;28;20056;-24
2023/07/27 09:49:15;;;;;;;1.15;0.80;;;17.40;99.90;;;;;;5054059;28;20041;-24
2023/07/27 09:51:42;;;;;;;1.10;0.70;;;17.30;99.90;;;;;;5046873;28;20049;-23
2023/07/27 09:54:08;;;;;;;1.63;1.00;;;17.20;99.90;;;;;;5033921;28;20175;-24
2023/07/27 09:56:34;;;;;;;1.55;0.85;;;17.10;99.90;;;;;;5034023;28;20041;-23
2023/07/27 09:59:00;;;;;;;1.50;1.08;;;17.10;99.90;;;;;;5035157;28;20058;-24
2023/07/27 10:01:27;;;;;;;1.52;1.33;;;17.10;99.90;;;;;;5038589;28;20039;-23
2023/07/27 10:03:57;;;;;;;3.17;1.40;;;17.20;99.90;;;;;;5049208;28;20069;-23
2023/07/27 10:06:28;;;;;;;1.38;1.10;;;17.10;99.90;;;;;;5040404;28;20125;-23
2023/07/27 10:08:55;;;;;;;0.93;0.63;;;17.20;99.90;;;;;;5043303;28;20048;-23
2023/07/27 10:11:55;;;;;;;1.83;0.95;;;17.30;99.90;;;;;;5052905;28;20064;-23
2023/07/27 10:14:24;;;;;;;0.70;0.55;;;17.40;99.90;;;;;;5054681;28;20033;-23
2023/07/27 10:17:07;;;;;;;0.85;0.70;;;17.50;99.90;;;;;;5053462;28;20407;-23
2023/07/27 10:19:51;;;;;;;0.68;0.50;;;17.40;99.90;;;;;;5051666;28;20055;-22
2023/07/27 10:22:19;;;;;;;0.60;0.40;;;17.20;99.90;;;;;;5034781;28;20124;-23
2023/07/27 10:24:53;;;;;;;0.60;0.40;;;17.10;99.90;;;;;;5017220;28;20041;-22
2023/07/27 10:27:24;;;;;;;1.83;1.00;;;17.10;99.90;;;;;;5034772;28;20079;-23
2023/07/27 10:30:12;;;;;;;1.88;0.90;;;17.10;99.90;;;;;;5033777;28;20057;-22
2023/07/27 10:32:58;;;;;;;0.85;0.80;;;17.20;99.90;;;;;;5035360;28;20475;-22
2023/07/27 10:35:24;;;;;;;1.65;1.10;;;17.40;99.90;;;;;;5033933;28;20041;-23
2023/07/27 10:37:55;;;;;;;1.02;0.95;;;17.60;99.90;;;;;;5033599;28;20045;-22
2023/07/27 10:40:29;;;;;;;1.40;1.30;;;17.60;99.90;;;;;;5034261;28;20041;-22
2023/07/27 10:42:57;;;;;;;2.05;1.50;;;17.50;99.90;;;;;;5034389;28;20049;-22
2023/07/27 10:45:26;;;;;;;1.58;1.48;;;17.50;99.90;;;;;;5033572;28;20056;-23
2023/07/27 10:47:56;;;;;;;1.85;1.20;;;17.40;99.90;;;;;;5073079;28;20052;-22
2023/07/27 10:50:23;;;;;;;1.73;1.20;;;17.20;99.90;;;;;;5047881;28;20056;-22
2023/07/27 10:52:53;;;;;;;1.60;1.50;;;17.10;99.90;;;;;;5045431;28;20198;-23
2023/07/27 10:55:23;;;;;;;2.13;1.40;;;17.10;99.90;;;;;;5049353;28;20037;-22
2023/07/27 10:57:53;;;;;;;1.58;1.48;;;17.00;99.90;;;;;;5047908;28;20055;-23
2023/07/27 11:00:18;;;;;;;1.83;1.58;;;16.90;99.90;;;;;;5053079;28;20052;-23
2023/07/27 11:02:45;;;;;;;2.28;2.08;;;16.90;99.90;;;;;;5066360;28;20131;-24
2023/07/27 11:05:12;;;;;;;1.70;1.60;;;16.80;99.90;;;;;;5073986;28;20474;-23
2023/07/27 11:07:46;;;;;;;2.40;1.75;;;16.80;99.90;;;;;;5072673;28;20048;-23
2023/07/27 11:10:16;;;;;;;1.30;1.20;;;16.70;99.90;;;;;;5059079;28;20084;-22
2023/07/27 11:12:52;;;;;;;2.10;1.88;;;16.70;99.90;;;;;;5053650;28;20072;-22
2023/07/27 11:15:27;;;;;;;2.15;2.00;;;16.60;99.90;;;;;;5053721;28;20091;-22
2023/07/27 11:17:55;;;;;;;2.17;1.98;;;16.50;99.90;;;;;;5064002;28;20045;-22
2023/07/27 11:20:23;;;;;;;2.95;2.58;;;16.50;99.90;;;;;;5062625;28;20056;-22
2023/07/27 11:22:49;;;;;;;3.10;2.20;;;16.50;99.90;;;;;;5052984;28;20056;-23
2023/07/27 11:25:15;;;;;;;3.03;2.38;;;16.60;99.90;;;;;;5053627;28;20471;-23
2023/07/27 11:27:41;;;;;;;2.42;2.22;;;16.70;99.90;;;;;;5035934;28;20095;-23
2023/07/27 11:30:12;;;;;;;2.60;2.40;;;16.80;99.90;;;;;;5049773;28;20048;-23
2023/07/27 11:32:38;;;;;;;2.83;2.58;;;16.90;99.90;;;;;;5032707;28;20079;-23
2023/07/27 11:35:04;;;;;;;3.35;2.78;;;17.00;99.90;;;;;;5032385;28;20049;-23
2023/07/27 11:37:31;;;;;;;2.45;2.13;;;17.20;99.90;;;;;;5032394;28;20601;-23
2023/07/27 11:39:57;;;;;;;4.20;2.95;;;17.20;99.90;;;;;;5033103;28;20049;-23
2023/07/27 11:42:28;;;;;;;2.83;2.53;;;17.10;99.90;;;;;;5044917;28;20445;-24
2023/07/27 11:44:55;;;;;;;3.03;2.72;;;17.10;99.90;;;;;;5053807;28;20049;-23
2023/07/27 11:47:22;;;;;;;2.45;2.25;;;17.00;99.90;;;;;;5052179;28;20045;-23
2023/07/27 11:49:53;;;;;;;2.95;2.65;;;17.00;99.90;;;;;;5048564;28;20479;-25
2023/07/27 11:52:20;;;;;;;3.15;2.83;;;17.10;99.90;;;;;;5035864;28;20053;-25
2023/07/27 11:54:51;;;;;;;3.28;2.95;;;17.10;99.90;;;;;;5051794;28;20048;-25
2023/07/27 11:57:17;;;;;;;5.20;4.70;;;17.10;99.90;;;;;;5015692;28;20053;-24
2023/07/27 11:59:58;;;;;;;4.72;3.38;;;17.00;99.90;;;;;;5040363;28;20102;-24
2023/07/27 12:02:23;;;;;;;5.38;3.40;;;17.10;99.90;;;;;;5053815;28;20087;-26
2023/07/27 12:04:49;;;;;;;7.07;4.13;;;17.20;99.90;;;;;;5053306;28;20037;-26
2023/07/27 12:07:15;;;;;;;5.28;4.30;;;17.10;99.90;;;;;;5066220;28;20049;-28
2023/07/27 12:09:41;;;;;;;4.78;4.38;;;17.20;99.90;;;;;;5016087;28;20045;-27
2023/07/27 12:12:09;;;;;;;5.45;4.95;;;17.20;99.90;;;;;;5040922;28;20120;-27
2023/07/27 12:14:35;;;;;;;3.63;3.33;;;17.20;99.90;;;;;;5053766;28;20088;-27
2023/07/27 12:17:09;;;;;;;5.63;4.72;;;17.30;99.90;;;;;;5033786;28;20140;-27
2023/07/27 12:19:37;;;;;;;3.17;2.88;;;17.50;99.90;;;;;;5048793;28;20131;-28
2023/07/27 12:22:03;;;;;;;3.50;3.20;;;17.50;99.90;;;;;;5045415;28;20045;-27
2023/07/27 12:24:29;;;;;;;3.72;3.42;;;17.70;99.90;;;;;;5036461;28;20110;-28
2023/07/27 12:26:55;;;;;;;3.22;2.95;;;17.80;99.90;;;;;;5047503;28;20044;-28
2023/07/27 12:29:21;;;;;;;3.58;3.13;;;17.90;99.90;;;;;;5052099;28;20041;-29
2023/07/27 12:31:47;;;;;;;2.78;2.53;;;18.10;99.90;;;;;;5044496;28;20094;-29
2023/07/27 12:34:15;;;;;;;2.70;2.50;;;18.30;99.90;;;;;;5056626;28;20080;-29
2023/07/27 12:36:40;;;;;;;2.30;2.10;;;18.60;99.90;;;;;;5069982;28;20045;-28
2023/07/27 12:39:06;;;;;;;2.40;2.20;;;18.90;99.90;;;;;;5058785;28;20399;-29
2023/07/27 12:41:32;;;;;;;1.60;1.50;;;19.00;99.90;;;;;;5068397;28;20044;-29
2023/07/27 12:43:57;;;;;;;2.80;1.40;;;19.20;99.90;;;;;;5045877;28;20505;-29
2023/07/27 12:46:23;;;;;;;1.70;1.60;;;19.30;99.90;;;;;;5036524;28;20053;-29